White Plains, NY

12:59 AM EDT on April 26, 2015 (GMT -0400)
Woodcrest Heights | | Change Station
CLOSE
Current Station
Personal Weather Station
Location: White Plains, NY
Elevation: 328 ft
Nearby Weather Stations

Elev 328 ft 41.05 °N, 73.76 °W | Updated 39 seconds ago

Partly Cloudy
Partly Cloudy
44.4 °F
Feels Like 44 °F
N
0.0
Wind Variable Wind from North
Gusts 0.0 mph

Today
High -- | Low -- °F
--% Chance of Precip.
Yesterday
High -- | Low -- °F
Precip. -- in
6:00 AM 7:46 PM
First Quarter, 52% visible
Pressure 29.70 in
Visibility 10.0 miles
Clouds Clear
Windchill 44 °F
Dew Point 31 °F
Humidity 58%
Rainfall 0.00 in
Snow Depth Not available.
UV 0.0 out of 12
Pollen 10.80 out of 12
Air Quality Not available.
Flu Activity Widespread
METAR KHPN 260356Z 34004KT 10SM CLR 06/M03 A2969 RMK AO2 SLP058 T00611028

More Conditions Fewer Conditions

Pressure 29.70 in
Visibility 10.0 miles
Clouds Clear
Windchill 44 °F
Dew Point 31 °F
Humidity 58%
Rainfall 0.00 in
Snow Depth Not available.
UV 0.0 out of 12
Pollen 10.80 out of 12
Air Quality Not available.
Flu Activity Widespread
METAR KHPN 260356Z 34004KT 10SM CLR 06/M03 A2969 RMK AO2 SLP058 T00611028

More Conditions Fewer Conditions

The full scope of the disaster following a powerful 7.8-magnitude earthquake in Nepal may not come into view for days, but global charities are already sending emergency aid. Click to see how you can help.

10-Day Weather Forecast

Almanac

Astronomy

Apr. 26, 2015 Rise Set
Actual Time
Civil Twilight
Nautical Twilight
Astronomical Twilight
Moon
Length of Visible Light
Length of Day
Tomorrow will be .
, % of the Moon is Illuminated

Today's Extremes

State Highs State Lows

Community

WunderPhotos

Upload Photos

1,816,938 photos uploaded!

WunderBlogs® & News

Nearby

Air Quality

  Air Quality AQ Index Pollutant
Not available.

Snow Depth

Station Depth Elevation

Earthquake Activity

City Distance Mag. Time & Date
Minimum magnitude displayed is 2.5.

Coastal Water Temperatures

Place Temperature

Stations

Nearby Weather Stations

Station Location Temp. Windchill Dew Point Humidity Wind Precip. Elev Updated Type